Time;durP1;ratioP1;P1;durP2;ratioP2;P2;SDS_P1;SDS_P2;PMS_P1;PMS_P2;Temp;Humidity;BMP_temperature;BMP_pressure;BME280_temperature;BME280_humidity;BME280_pressure;Samples;Min_cycle;Max_cycle;Signal;HPM_P1;HPM_P2
2023/05/21 00:01:06;;;;;;;5.63;5.13;;;19.30;66.10;;;;;;4996018;28;20295;-66
2023/05/21 00:03:32;;;;;;;5.82;5.32;;;19.30;66.20;;;;;;4996180;28;20188;-65
2023/05/21 00:06:00;;;;;;;5.95;5.45;;;19.20;66.10;;;;;;4996288;28;20216;-66
2023/05/21 00:08:27;;;;;;;5.53;5.03;;;19.20;66.10;;;;;;4995815;28;20231;-66
2023/05/21 00:10:53;;;;;;;6.70;4.85;;;19.20;66.10;;;;;;4996079;28;20196;-66
2023/05/21 00:13:18;;;;;;;5.32;4.88;;;19.30;66.20;;;;;;4992635;28;20268;-66
2023/05/21 00:15:45;;;;;;;5.65;5.15;;;19.30;66.20;;;;;;4995173;28;20200;-65
2023/05/21 00:18:10;;;;;;;5.45;4.95;;;19.30;66.20;;;;;;5012109;28;20192;-65
2023/05/21 00:20:37;;;;;;;5.57;5.18;;;19.30;66.20;;;;;;5011886;28;20246;-66
2023/05/21 00:23:03;;;;;;;6.03;5.43;;;19.20;66.10;;;;;;4992611;28;20181;-65
2023/05/21 00:25:29;;;;;;;6.05;5.55;;;19.30;66.20;;;;;;4992276;28;20181;-65
2023/05/21 00:27:55;;;;;;;5.75;5.25;;;19.20;66.10;;;;;;4975916;28;20270;-65
2023/05/21 00:30:21;;;;;;;5.43;4.93;;;19.30;66.10;;;;;;5001109;28;20188;-66
2023/05/21 00:32:46;;;;;;;5.10;4.63;;;19.30;66.10;;;;;;5012117;28;20203;-65
2023/05/21 00:35:13;;;;;;;5.65;5.15;;;19.20;66.10;;;;;;5011973;28;20184;-65
2023/05/21 00:37:39;;;;;;;5.55;5.15;;;19.20;66.10;;;;;;5011469;28;20283;-64
2023/05/21 00:40:08;;;;;;;5.57;5.13;;;19.30;66.20;;;;;;4995425;28;20188;-65
2023/05/21 00:42:38;;;;;;;5.40;5.00;;;19.20;66.10;;;;;;4995274;28;20263;-65
2023/05/21 00:45:05;;;;;;;6.07;5.57;;;19.20;66.10;;;;;;4995618;28;20623;-65
2023/05/21 00:47:32;;;;;;;5.18;4.78;;;19.20;66.10;;;;;;4995243;28;20212;-66
2023/05/21 00:49:58;;;;;;;6.10;5.18;;;19.20;66.20;;;;;;4995219;28;20188;-65
2023/05/21 00:52:26;;;;;;;5.38;4.68;;;19.20;66.30;;;;;;4995226;28;20180;-66
2023/05/21 00:54:52;;;;;;;6.18;5.68;;;19.20;66.20;;;;;;4995554;28;20278;-65
2023/05/21 00:57:19;;;;;;;5.63;5.22;;;19.20;66.20;;;;;;5011620;28;20207;-65
2023/05/21 00:59:49;;;;;;;5.72;5.28;;;19.30;66.40;;;;;;5011604;28;20179;-66
2023/05/21 01:02:17;;;;;;;5.63;5.20;;;19.20;66.20;;;;;;4995207;28;20257;-65
2023/05/21 01:04:44;;;;;;;5.70;5.18;;;19.20;66.40;;;;;;5011371;28;20184;-65
2023/05/21 01:07:11;;;;;;;5.85;5.35;;;19.20;66.30;;;;;;4994786;28;20204;-65
2023/05/21 01:09:39;;;;;;;5.70;5.22;;;19.20;66.40;;;;;;5011252;28;20180;-65
2023/05/21 01:12:06;;;;;;;5.60;5.10;;;19.20;66.40;;;;;;4995046;28;20651;-65
2023/05/21 01:14:34;;;;;;;5.60;5.15;;;19.20;66.40;;;;;;5011200;28;20208;-65
2023/05/21 01:17:03;;;;;;;5.82;5.32;;;19.20;66.40;;;;;;5027431;28;20681;-66
2023/05/21 01:19:31;;;;;;;5.95;5.45;;;19.20;66.30;;;;;;5009667;28;20177;-64
2023/05/21 01:22:04;;;;;;;5.75;5.25;;;19.20;66.40;;;;;;4991600;28;20185;-64
2023/05/21 01:24:31;;;;;;;6.10;5.53;;;19.20;66.40;;;;;;4991724;28;20185;-65
2023/05/21 01:26:58;;;;;;;5.45;5.05;;;19.20;66.40;;;;;;4994417;28;20215;-65
2023/05/21 01:29:24;;;;;;;5.85;5.25;;;19.20;66.40;;;;;;4995620;28;20251;-65
2023/05/21 01:32:12;;;;;;;6.18;5.57;;;19.20;66.40;;;;;;5011903;28;20188;-65
2023/05/21 01:35:02;;;;;;;6.05;5.30;;;19.20;66.40;;;;;;4995757;28;20562;-65
2023/05/21 01:37:38;;;;;;;6.38;5.78;;;19.20;66.40;;;;;;5013349;28;20220;-65
2023/05/21 01:40:15;;;;;;;6.30;5.80;;;19.20;66.40;;;;;;5031878;28;20225;-64
2023/05/21 01:42:44;;;;;;;6.00;5.50;;;19.20;66.40;;;;;;5015217;28;20192;-65
2023/05/21 01:45:13;;;;;;;5.40;5.00;;;19.20;66.40;;;;;;5014920;28;20184;-66
2023/05/21 01:47:40;;;;;;;5.43;5.03;;;19.20;66.40;;;;;;4998557;28;20211;-65
2023/05/21 01:50:07;;;;;;;5.65;5.15;;;19.20;66.40;;;;;;5003650;28;20207;-66
2023/05/21 01:52:33;;;;;;;6.28;5.78;;;19.20;66.40;;;;;;4995375;28;20626;-66
2023/05/21 01:54:59;;;;;;;6.30;5.80;;;19.20;66.50;;;;;;4995157;28;20227;-66
2023/05/21 01:57:25;;;;;;;5.60;5.10;;;19.20;66.40;;;;;;4995881;28;20307;-67
2023/05/21 01:59:55;;;;;;;6.38;5.78;;;19.20;66.50;;;;;;4995084;28;20234;-67
2023/05/21 02:02:20;;;;;;;5.97;5.47;;;19.20;66.50;;;;;;4995066;28;20200;-66
2023/05/21 02:04:46;;;;;;;6.18;5.68;;;19.20;66.50;;;;;;4978850;28;20275;-66
2023/05/21 02:07:17;;;;;;;6.53;6.03;;;19.20;66.50;;;;;;4978431;28;20311;-66
2023/05/21 02:09:42;;;;;;;5.88;5.28;;;19.20;66.50;;;;;;4995073;28;20232;-66
2023/05/21 02:12:08;;;;;;;5.95;5.45;;;19.20;66.50;;;;;;4995305;28;20174;-66
2023/05/21 02:14:34;;;;;;;6.28;5.78;;;19.20;66.50;;;;;;5005404;28;20199;-66
2023/05/21 02:17:00;;;;;;;5.95;5.45;;;19.20;66.50;;;;;;5014104;28;20203;-66
2023/05/21 02:19:26;;;;;;;5.78;5.18;;;19.20;66.50;;;;;;5014670;28;20184;-66
2023/05/21 02:21:52;;;;;;;6.32;5.80;;;19.20;67.30;;;;;;5030777;28;20184;-66
2023/05/21 02:24:18;;;;;;;6.25;5.75;;;19.20;66.60;;;;;;5014306;28;20222;-66
2023/05/21 02:26:44;;;;;;;6.00;5.50;;;19.20;66.60;;;;;;5022383;28;20212;-65
2023/05/21 02:29:09;;;;;;;6.43;5.90;;;19.20;66.60;;;;;;4997696;28;20216;-66
2023/05/21 02:31:35;;;;;;;5.93;5.43;;;19.20;66.60;;;;;;4997822;28;20274;-66
2023/05/21 02:34:01;;;;;;;5.70;5.28;;;19.20;66.50;;;;;;4997695;28;20180;-66
2023/05/21 02:36:27;;;;;;;5.90;5.40;;;19.20;66.50;;;;;;4997482;28;20254;-65
2023/05/21 02:38:53;;;;;;;6.13;5.63;;;19.20;66.60;;;;;;4996901;28;20184;-66
2023/05/21 02:41:20;;;;;;;5.45;5.03;;;19.20;66.60;;;;;;4997489;28;20188;-66
2023/05/21 02:43:46;;;;;;;5.82;5.32;;;19.20;66.50;;;;;;4997805;28;20184;-67
2023/05/21 02:46:12;;;;;;;5.93;5.45;;;19.20;66.50;;;;;;4997362;28;20717;-66
2023/05/21 02:48:38;;;;;;;5.93;5.43;;;19.20;66.60;;;;;;4996289;28;20278;-67
2023/05/21 02:51:04;;;;;;;6.18;5.68;;;19.20;66.60;;;;;;5013480;28;20254;-66
2023/05/21 02:53:30;;;;;;;5.88;5.38;;;19.20;66.60;;;;;;4995780;28;20248;-66
2023/05/21 02:55:56;;;;;;;5.80;5.30;;;19.20;66.60;;;;;;4994175;28;20236;-66
2023/05/21 02:58:24;;;;;;;5.75;5.25;;;19.20;66.50;;;;;;4994246;28;20188;-66
2023/05/21 03:00:52;;;;;;;6.55;6.05;;;19.20;66.50;;;;;;4997245;28;20195;-66
2023/05/21 03:03:18;;;;;;;6.43;5.82;;;19.20;66.60;;;;;;4994035;28;20276;-66
2023/05/21 03:05:44;;;;;;;6.15;5.55;;;19.10;66.50;;;;;;5013131;28;20294;-67
2023/05/21 03:08:11;;;;;;;6.18;5.68;;;19.10;66.50;;;;;;4993476;28;20219;-66
2023/05/21 03:10:37;;;;;;;6.70;6.10;;;19.20;66.60;;;;;;4996229;28;20188;-66
2023/05/21 03:13:04;;;;;;;6.38;5.78;;;19.10;66.40;;;;;;4995460;28;20184;-66
2023/05/21 03:15:32;;;;;;;5.88;5.38;;;19.10;66.40;;;;;;4996092;28;20238;-66
2023/05/21 03:17:58;;;;;;;6.35;5.85;;;19.20;66.60;;;;;;5029391;28;20246;-66
2023/05/21 03:20:25;;;;;;;6.35;5.85;;;19.10;66.40;;;;;;5012899;28;20192;-65
2023/05/21 03:22:51;;;;;;;6.10;5.60;;;19.10;66.40;;;;;;5013018;28;20183;-66
2023/05/21 03:25:17;;;;;;;6.18;5.68;;;19.10;66.50;;;;;;5029265;28;20575;-67
2023/05/21 03:27:44;;;;;;;6.38;5.88;;;19.10;66.50;;;;;;5012738;28;20243;-66
2023/05/21 03:30:29;;;;;;;6.68;5.93;;;19.10;66.50;;;;;;5012896;28;20574;-66
2023/05/21 03:33:22;;;;;;;5.70;5.30;;;19.10;66.40;;;;;;5012721;28;20188;-66
2023/05/21 03:35:48;;;;;;;6.13;5.63;;;19.10;66.50;;;;;;5029133;28;20200;-66
2023/05/21 03:38:14;;;;;;;6.55;5.90;;;19.10;66.40;;;;;;5004490;28;20188;-66
2023/05/21 03:40:40;;;;;;;6.57;6.00;;;19.10;66.40;;;;;;5029111;28;20199;-66
2023/05/21 03:43:06;;;;;;;6.68;6.10;;;19.10;66.40;;;;;;4996698;28;20195;-66
2023/05/21 03:45:31;;;;;;;6.75;6.20;;;19.10;66.40;;;;;;5012701;28;20215;-66
2023/05/21 03:48:23;;;;;;;5.93;5.43;;;19.10;66.40;;;;;;5024478;28;20282;-66
2023/05/21 03:50:49;;;;;;;6.00;5.50;;;19.20;66.50;;;;;;5021741;28;20652;-66
2023/05/21 03:53:15;;;;;;;6.55;6.05;;;19.10;66.40;;;;;;4996196;28;20181;-66
2023/05/21 03:55:40;;;;;;;6.18;5.57;;;19.10;66.40;;;;;;4995793;28;20216;-66
2023/05/21 03:58:06;;;;;;;6.00;5.50;;;19.10;66.40;;;;;;5012207;28;20184;-66
2023/05/21 04:00:33;;;;;;;5.63;5.15;;;19.10;66.40;;;;;;4995848;28;20188;-66
2023/05/21 04:02:59;;;;;;;6.20;5.70;;;19.10;66.40;;;;;;4996452;28;20188;-66
2023/05/21 04:05:26;;;;;;;5.97;5.47;;;19.10;66.40;;;;;;5011941;28;20188;-67
2023/05/21 04:07:52;;;;;;;6.60;6.00;;;19.10;66.40;;;;;;5028314;28;20208;-66
2023/05/21 04:10:17;;;;;;;6.13;5.63;;;19.10;66.50;;;;;;5020326;28;20601;-65
2023/05/21 04:12:43;;;;;;;6.25;5.72;;;19.10;66.40;;;;;;4996034;28;20207;-66
2023/05/21 04:15:09;;;;;;;6.20;5.65;;;19.10;66.50;;;;;;5012205;28;20184;-66
2023/05/21 04:17:35;;;;;;;6.03;5.53;;;19.10;66.40;;;;;;4995273;28;20234;-66
2023/05/21 04:20:01;;;;;;;6.57;6.07;;;19.10;66.40;;;;;;5028503;28;20298;-66
2023/05/21 04:22:29;;;;;;;6.43;5.82;;;19.10;66.40;;;;;;5020203;28;20192;-66
2023/05/21 04:24:55;;;;;;;6.03;5.53;;;19.10;66.40;;;;;;5028503;28;20775;-65
2023/05/21 04:27:26;;;;;;;6.18;5.68;;;19.10;66.50;;;;;;5003419;28;20702;-65
2023/05/21 04:29:56;;;;;;;6.65;6.13;;;19.10;66.40;;;;;;5020206;28;20207;-66
2023/05/21 04:32:23;;;;;;;6.45;5.85;;;19.10;66.40;;;;;;5011757;28;20266;-65
2023/05/21 04:34:49;;;;;;;6.28;5.78;;;19.10;66.40;;;;;;4995424;28;20282;-65
2023/05/21 04:37:18;;;;;;;6.13;5.63;;;19.10;66.50;;;;;;4995269;28;20220;-65
2023/05/21 04:39:45;;;;;;;6.40;5.90;;;19.10;66.40;;;;;;4995291;28;20184;-66
2023/05/21 04:42:11;;;;;;;6.30;5.80;;;19.10;66.40;;;;;;4995314;28;20188;-66
2023/05/21 04:44:39;;;;;;;5.40;5.00;;;19.10;66.40;;;;;;4995471;28;20275;-66
2023/05/21 04:47:06;;;;;;;6.03;5.53;;;19.10;66.40;;;;;;5027672;28;20200;-65
2023/05/21 04:49:33;;;;;;;6.05;5.45;;;19.10;66.50;;;;;;5011363;28;20215;-65
2023/05/21 04:52:01;;;;;;;6.30;5.80;;;19.10;66.40;;;;;;5011754;28;20180;-65
2023/05/21 04:54:27;;;;;;;6.10;5.60;;;19.10;66.50;;;;;;5019679;28;20181;-66
2023/05/21 04:56:53;;;;;;;6.50;5.90;;;19.10;66.50;;;;;;5011211;28;20683;-66
2023/05/21 04:59:20;;;;;;;5.75;5.25;;;19.10;66.70;;;;;;5027655;28;20307;-66
2023/05/21 05:01:46;;;;;;;6.57;5.97;;;19.10;66.50;;;;;;5010673;28;20206;-65
2023/05/21 05:04:12;;;;;;;6.25;5.75;;;19.10;66.50;;;;;;5027999;28;20192;-66
2023/05/21 05:06:37;;;;;;;6.22;5.63;;;19.10;66.50;;;;;;5019617;28;20211;-66
2023/05/21 05:09:04;;;;;;;6.43;5.88;;;19.10;66.50;;;;;;5021156;28;20213;-66
2023/05/21 05:11:30;;;;;;;6.03;5.53;;;19.10;66.60;;;;;;5015997;28;20253;-66
2023/05/21 05:13:56;;;;;;;6.60;6.00;;;19.10;66.50;;;;;;4991759;28;20185;-65
2023/05/21 05:16:25;;;;;;;5.90;5.40;;;19.10;66.60;;;;;;4994760;28;20211;-66
2023/05/21 05:18:51;;;;;;;5.60;5.20;;;19.10;66.50;;;;;;5019339;28;20199;-65
2023/05/21 05:21:17;;;;;;;6.03;5.53;;;19.10;67.30;;;;;;5019595;28;20211;-65
2023/05/21 05:23:43;;;;;;;5.78;5.28;;;19.10;66.60;;;;;;5003049;28;20188;-66
2023/05/21 05:26:12;;;;;;;6.60;6.03;;;19.10;66.60;;;;;;4994885;28;20231;-66
2023/05/21 05:28:38;;;;;;;6.32;5.82;;;19.10;66.60;;;;;;5010777;28;20212;-65
2023/05/21 05:31:04;;;;;;;6.05;5.55;;;19.10;66.60;;;;;;5027482;28;20230;-65
2023/05/21 05:33:31;;;;;;;6.57;5.97;;;19.10;66.50;;;;;;5011017;28;20189;-65
2023/05/21 05:35:57;;;;;;;6.85;5.60;;;19.10;66.60;;;;;;4994881;28;20204;-65
2023/05/21 05:38:23;;;;;;;5.90;5.40;;;19.10;66.60;;;;;;4994321;28;20273;-65
2023/05/21 05:40:49;;;;;;;6.07;5.57;;;19.10;66.70;;;;;;5011084;28;20184;-65
2023/05/21 05:43:15;;;;;;;5.60;5.20;;;19.10;66.70;;;;;;4991338;28;20199;-65
2023/05/21 05:45:40;;;;;;;5.93;5.38;;;19.10;66.70;;;;;;4994003;28;20214;-65
2023/05/21 05:48:11;;;;;;;5.82;5.32;;;19.00;66.50;;;;;;5010713;28;20220;-65
2023/05/21 05:50:37;;;;;;;6.35;5.85;;;19.00;66.60;;;;;;5019071;28;20195;-65
2023/05/21 05:53:03;;;;;;;6.60;6.00;;;19.10;66.70;;;;;;5010822;28;20267;-65
2023/05/21 05:55:29;;;;;;;6.30;5.80;;;19.10;66.70;;;;;;5010912;28;20192;-65
2023/05/21 05:57:55;;;;;;;5.95;5.45;;;19.10;66.70;;;;;;5018788;28;20187;-66
2023/05/21 06:00:21;;;;;;;5.90;5.40;;;19.00;66.60;;;;;;4994400;28;20188;-66
2023/05/21 06:02:49;;;;;;;6.72;6.05;;;19.10;66.80;;;;;;5027317;28;20186;-66
2023/05/21 06:05:15;;;;;;;6.32;5.75;;;19.00;66.60;;;;;;5010687;28;20271;-65
2023/05/21 06:07:41;;;;;;;6.00;5.50;;;19.10;66.80;;;;;;5007899;28;20217;-66
2023/05/21 06:10:08;;;;;;;5.88;5.38;;;19.00;66.60;;;;;;4991398;28;20193;-64
2023/05/21 06:12:33;;;;;;;5.82;5.35;;;19.10;66.80;;;;;;5010050;28;20271;-65
2023/05/21 06:15:00;;;;;;;5.97;5.47;;;19.10;66.80;;;;;;4998289;28;20267;-65
2023/05/21 06:17:26;;;;;;;6.13;5.60;;;19.10;66.80;;;;;;5005869;28;20206;-65
2023/05/21 06:19:53;;;;;;;6.05;5.65;;;19.10;66.80;;;;;;5031393;28;20195;-65
2023/05/21 06:22:19;;;;;;;6.20;5.68;;;19.10;66.80;;;;;;5022996;28;20660;-66
2023/05/21 06:24:45;;;;;;;5.95;5.45;;;19.10;66.80;;;;;;5005792;28;20245;-66
2023/05/21 06:27:11;;;;;;;6.10;5.60;;;19.10;66.80;;;;;;4997568;28;20294;-66
2023/05/21 06:29:39;;;;;;;6.68;6.13;;;19.00;66.70;;;;;;5014032;28;20283;-67
2023/05/21 06:32:07;;;;;;;6.50;6.00;;;19.10;66.80;;;;;;4994703;28;20181;-66
2023/05/21 06:34:33;;;;;;;5.82;5.22;;;19.00;66.80;;;;;;5012060;28;20227;-66
2023/05/21 06:36:59;;;;;;;5.70;5.25;;;19.00;66.80;;;;;;5013720;28;20231;-66
2023/05/21 06:39:26;;;;;;;5.80;5.25;;;19.10;66.90;;;;;;5014042;28;20179;-65
2023/05/21 06:41:52;;;;;;;5.47;4.97;;;19.10;66.90;;;;;;5014219;28;20188;-66
2023/05/21 06:44:50;;;;;;;5.93;5.43;;;19.00;66.70;;;;;;5025999;28;20230;-65
2023/05/21 06:47:25;;;;;;;6.30;5.80;;;19.00;66.80;;;;;;5013330;28;20207;-66
2023/05/21 06:49:50;;;;;;;6.10;5.60;;;19.00;66.80;;;;;;5013531;28;20211;-66
2023/05/21 06:52:16;;;;;;;5.93;5.43;;;19.00;66.80;;;;;;5015049;28;20191;-65
2023/05/21 06:54:43;;;;;;;5.95;5.45;;;19.10;66.90;;;;;;5004667;28;20196;-65
2023/05/21 06:57:08;;;;;;;5.07;4.68;;;19.10;67.00;;;;;;4993621;28;20283;-65
2023/05/21 06:59:34;;;;;;;5.82;5.35;;;19.10;67.00;;;;;;5005268;28;20196;-65
2023/05/21 07:02:00;;;;;;;5.88;5.45;;;19.10;67.00;;;;;;4993964;28;20263;-65
2023/05/21 07:04:26;;;;;;;6.20;5.60;;;19.10;67.00;;;;;;5013365;28;20187;-66
2023/05/21 07:06:52;;;;;;;6.05;5.55;;;19.00;66.90;;;;;;4997164;28;20203;-66
2023/05/21 07:09:18;;;;;;;6.20;5.70;;;19.10;67.10;;;;;;4997333;28;20212;-66
2023/05/21 07:11:45;;;;;;;6.10;5.60;;;19.10;67.00;;;;;;5013414;28;20192;-64
2023/05/21 07:14:14;;;;;;;5.45;5.05;;;19.10;67.00;;;;;;4997204;28;20531;-65
2023/05/21 07:16:40;;;;;;;6.10;5.60;;;19.10;67.00;;;;;;5029393;28;20203;-66
2023/05/21 07:19:06;;;;;;;6.40;5.90;;;19.10;67.10;;;;;;5013349;28;20199;-65
2023/05/21 07:21:32;;;;;;;5.72;5.20;;;19.10;67.10;;;;;;4994388;28;20276;-65
2023/05/21 07:23:58;;;;;;;5.85;5.35;;;19.10;67.00;;;;;;5016915;28;20200;-66
2023/05/21 07:26:25;;;;;;;6.05;5.55;;;19.10;67.00;;;;;;5001419;28;20211;-67
2023/05/21 07:28:51;;;;;;;5.97;5.47;;;19.20;67.00;;;;;;4996416;28;20215;-66
2023/05/21 07:31:17;;;;;;;6.32;5.82;;;19.10;66.90;;;;;;4996685;28;20188;-66
2023/05/21 07:33:46;;;;;;;6.18;5.68;;;19.20;67.00;;;;;;5013252;28;20196;-66
2023/05/21 07:36:13;;;;;;;6.03;5.53;;;19.20;67.10;;;;;;5029472;28;20215;-65
2023/05/21 07:38:39;;;;;;;6.55;6.05;;;19.20;67.10;;;;;;5020883;28;20304;-66
2023/05/21 07:41:06;;;;;;;5.63;5.22;;;19.20;67.20;;;;;;5012824;28;20220;-66
2023/05/21 07:43:32;;;;;;;6.65;6.15;;;19.20;67.20;;;;;;5004576;28;20232;-66
2023/05/21 07:45:58;;;;;;;6.35;5.75;;;19.20;67.10;;;;;;5016937;28;20244;-65
2023/05/21 07:48:25;;;;;;;6.47;5.88;;;19.20;67.20;;;;;;5009130;28;20199;-64
2023/05/21 07:50:58;;;;;;;6.18;5.57;;;19.20;67.10;;;;;;5017074;28;20209;-66
2023/05/21 07:53:24;;;;;;;6.30;5.78;;;19.20;67.20;;;;;;4998247;28;20192;-66
2023/05/21 07:55:50;;;;;;;7.13;6.30;;;19.30;67.40;;;;;;5012063;28;20200;-66
2023/05/21 07:58:22;;;;;;;6.47;5.95;;;19.30;67.40;;;;;;5029094;28;20267;-66
2023/05/21 08:00:48;;;;;;;6.45;5.85;;;19.20;67.30;;;;;;5012495;28;20203;-66
2023/05/21 08:03:15;;;;;;;6.68;6.18;;;19.30;67.40;;;;;;4996069;28;20263;-66
2023/05/21 08:05:49;;;;;;;10.32;5.97;;;19.30;67.40;;;;;;5012358;28;20222;-65
2023/05/21 08:08:17;;;;;;;6.10;5.57;;;19.30;67.50;;;;;;5012018;28;20268;-66
2023/05/21 08:10:45;;;;;;;5.82;5.32;;;19.30;67.40;;;;;;4996415;28;20218;-66
2023/05/21 08:13:12;;;;;;;25.60;6.43;;;19.30;67.80;;;;;;4992814;28;20338;-66
2023/05/21 08:15:38;;;;;;;18.73;6.40;;;19.30;67.60;;;;;;4995982;28;20200;-65
2023/05/21 08:18:04;;;;;;;16.58;6.30;;;19.40;67.70;;;;;;5011923;28;20205;-65
2023/05/21 08:20:32;;;;;;;14.23;6.43;;;19.30;67.90;;;;;;4987740;28;20204;-66
2023/05/21 08:22:59;;;;;;;6.93;5.75;;;19.30;68.10;;;;;;4992441;28;20271;-66
2023/05/21 08:25:29;;;;;;;12.88;6.38;;;19.30;68.10;;;;;;4991820;28;20314;-65
2023/05/21 08:27:56;;;;;;;30.80;7.00;;;19.30;68.20;;;;;;5011657;28;20204;-66
2023/05/21 08:30:21;;;;;;;10.20;6.20;;;19.30;68.20;;;;;;5020101;28;20195;-66
2023/05/21 08:32:48;;;;;;;10.40;6.55;;;19.30;68.20;;;;;;5011970;28;20219;-66
2023/05/21 08:35:16;;;;;;;15.18;6.35;;;19.30;68.20;;;;;;4991382;28;20272;-65
2023/05/21 08:37:54;;;;;;;12.93;6.32;;;19.30;68.20;;;;;;5013211;28;20180;-66
2023/05/21 08:40:48;;;;;;;11.73;6.25;;;19.30;68.20;;;;;;5024664;28;20203;-66
2023/05/21 08:43:16;;;;;;;7.60;6.60;;;19.30;68.20;;;;;;4995265;28;20188;-65
2023/05/21 08:45:54;;;;;;;13.43;5.88;;;19.30;68.30;;;;;;4995173;28;20215;-66
2023/05/21 08:48:22;;;;;;;9.48;6.50;;;19.30;68.10;;;;;;4995546;28;20215;-65
2023/05/21 08:50:53;;;;;;;12.10;5.88;;;19.40;68.40;;;;;;4995533;28;20191;-65
2023/05/21 08:53:33;;;;;;;9.60;6.00;;;19.40;68.50;;;;;;5018315;28;20192;-66
2023/05/21 08:56:00;;;;;;;6.93;6.20;;;19.40;68.30;;;;;;5008182;28;20211;-66
2023/05/21 08:58:42;;;;;;;6.57;5.97;;;19.40;68.30;;;;;;5008712;28;20196;-66
2023/05/21 09:01:10;;;;;;;7.57;6.53;;;19.40;68.10;;;;;;4995145;28;20659;-66
2023/05/21 09:03:39;;;;;;;7.28;6.32;;;19.40;68.30;;;;;;4992608;28;20195;-66
2023/05/21 09:06:13;;;;;;;6.88;6.18;;;19.40;68.30;;;;;;4991694;28;20232;-66
2023/05/21 09:08:44;;;;;;;7.45;6.43;;;19.40;68.00;;;;;;5008842;28;20738;-65
2023/05/21 09:11:28;;;;;;;6.70;5.78;;;19.40;68.30;;;;;;4997604;28;20191;-66
2023/05/21 09:13:59;;;;;;;6.13;5.63;;;19.40;68.40;;;;;;4995064;28;20184;-66
2023/05/21 09:16:33;;;;;;;8.82;5.65;;;19.40;68.50;;;;;;4991867;28;20212;-65
2023/05/21 09:19:01;;;;;;;6.50;5.90;;;19.40;68.60;;;;;;4994984;28;20248;-66
2023/05/21 09:21:32;;;;;;;6.97;5.65;;;19.40;68.30;;;;;;5011269;28;20211;-65
2023/05/21 09:24:23;;;;;;;9.35;6.18;;;19.40;68.30;;;;;;5024040;28;20222;-65
2023/05/21 09:26:50;;;;;;;7.22;6.53;;;19.50;68.40;;;;;;4994514;28;20241;-65
2023/05/21 09:29:16;;;;;;;6.90;5.88;;;19.50;68.40;;;;;;5011348;28;20235;-66
2023/05/21 09:31:43;;;;;;;6.88;6.07;;;19.50;68.40;;;;;;5027642;28;20211;-65
2023/05/21 09:34:12;;;;;;;6.28;5.78;;;19.50;68.40;;;;;;4991630;28;20695;-66
2023/05/21 09:36:39;;;;;;;6.53;5.90;;;19.50;68.60;;;;;;4989679;28;20819;-66
2023/05/21 09:39:05;;;;;;;7.40;6.22;;;19.50;68.50;;;;;;4994564;28;20267;-67
2023/05/21 09:41:35;;;;;;;6.40;5.85;;;19.50;68.60;;;;;;4995003;28;20335;-66
2023/05/21 09:44:03;;;;;;;6.40;5.80;;;19.50;68.70;;;;;;4994792;28;20279;-65
2023/05/21 09:46:40;;;;;;;6.38;5.88;;;19.50;68.80;;;;;;4995195;28;20212;-65
2023/05/21 09:49:21;;;;;;;6.40;5.88;;;19.50;68.40;;;;;;4998428;28;20214;-66
2023/05/21 09:51:47;;;;;;;5.93;5.32;;;19.50;68.80;;;;;;5023031;28;20274;-66
2023/05/21 09:54:13;;;;;;;7.22;6.40;;;19.50;68.80;;;;;;4995500;28;20235;-65
2023/05/21 09:56:39;;;;;;;8.50;6.10;;;19.50;68.70;;;;;;5014723;28;20358;-65
2023/05/21 09:59:04;;;;;;;6.38;5.88;;;19.50;68.60;;;;;;5014515;28;20196;-64
2023/05/21 10:01:34;;;;;;;6.32;5.75;;;19.50;68.80;;;;;;5014530;28;20215;-66
2023/05/21 10:04:05;;;;;;;6.47;5.85;;;19.50;68.70;;;;;;5023255;28;20191;-63
2023/05/21 10:06:36;;;;;;;6.57;5.97;;;19.50;68.70;;;;;;5031195;28;20215;-65
2023/05/21 10:09:09;;;;;;;6.20;5.60;;;19.50;68.70;;;;;;5014361;28;20215;-66
2023/05/21 10:11:36;;;;;;;6.28;5.75;;;19.50;69.00;;;;;;5014680;28;20684;-66
2023/05/21 10:14:18;;;;;;;7.43;6.63;;;19.50;68.70;;;;;;5019308;28;20189;-66
2023/05/21 10:16:46;;;;;;;7.88;5.60;;;19.50;68.80;;;;;;5012061;28;20208;-66
2023/05/21 10:19:14;;;;;;;5.93;5.43;;;19.50;69.00;;;;;;4998108;28;20184;-65
2023/05/21 10:21:41;;;;;;;6.93;5.90;;;19.50;68.70;;;;;;4995213;28;20287;-65
2023/05/21 10:24:11;;;;;;;6.75;6.18;;;19.60;68.90;;;;;;5014596;28;20179;-65
2023/05/21 10:26:40;;;;;;;6.35;5.75;;;19.60;68.60;;;;;;4994368;28;20221;-66
2023/05/21 10:29:07;;;;;;;5.72;5.30;;;19.60;68.70;;;;;;4997545;28;20232;-65
2023/05/21 10:31:35;;;;;;;6.53;5.90;;;19.60;68.80;;;;;;4997634;28;20191;-65
2023/05/21 10:34:04;;;;;;;6.32;5.72;;;19.50;68.60;;;;;;4997429;28;20184;-66
2023/05/21 10:36:31;;;;;;;6.85;6.20;;;19.60;68.50;;;;;;4997588;28;20212;-66
2023/05/21 10:38:59;;;;;;;5.90;5.40;;;19.60;68.90;;;;;;5013759;28;20299;-66
2023/05/21 10:41:27;;;;;;;8.15;5.82;;;19.60;68.80;;;;;;4994219;28;20189;-66
2023/05/21 10:44:07;;;;;;;6.30;5.78;;;19.60;68.70;;;;;;4996239;28;20192;-65
2023/05/21 10:47:46;;;;;;;6.53;5.93;;;19.60;68.70;;;;;;5013601;28;20707;-66
2023/05/21 10:50:40;;;;;;;7.45;5.97;;;19.60;68.70;;;;;;5021892;28;20204;-66
2023/05/21 10:53:46;;;;;;;6.10;5.53;;;19.60;68.60;;;;;;5006298;28;20192;-66
2023/05/21 10:56:27;;;;;;;6.13;5.63;;;19.60;68.60;;;;;;5013875;28;20254;-66
2023/05/21 10:59:45;;;;;;;6.00;5.45;;;19.60;68.50;;;;;;5012660;28;20195;-66
2023/05/21 11:02:18;;;;;;;6.03;5.38;;;19.60;68.60;;;;;;5013504;28;20191;-65
2023/05/21 11:04:47;;;;;;;5.95;5.32;;;19.60;68.50;;;;;;5029896;28;20203;-66
2023/05/21 11:07:22;;;;;;;5.95;5.45;;;19.60;68.80;;;;;;5020911;28;20203;-66
2023/05/21 11:09:49;;;;;;;6.75;6.15;;;19.60;68.60;;;;;;4997056;28;20215;-66
2023/05/21 11:12:16;;;;;;;6.07;5.47;;;19.60;68.70;;;;;;5013733;28;20180;-66
2023/05/21 11:14:56;;;;;;;6.18;5.68;;;19.60;68.50;;;;;;4994440;28;20251;-66
2023/05/21 11:17:43;;;;;;;5.82;5.43;;;19.60;68.60;;;;;;5013089;28;20208;-66
2023/05/21 11:20:13;;;;;;;6.03;5.53;;;19.60;68.70;;;;;;4997284;28;20242;-66
2023/05/21 11:22:38;;;;;;;6.28;5.55;;;19.60;68.50;;;;;;4996828;28;20188;-66
2023/05/21 11:25:05;;;;;;;6.47;5.88;;;19.60;68.70;;;;;;5029684;28;20271;-66
2023/05/21 11:27:41;;;;;;;6.07;5.57;;;19.70;68.70;;;;;;4993067;28;20775;-65
2023/05/21 11:30:14;;;;;;;5.93;5.43;;;19.70;68.70;;;;;;4996912;28;20195;-65
2023/05/21 11:33:10;;;;;;;6.97;5.97;;;19.70;68.90;;;;;;5013363;28;20192;-66
2023/05/21 11:35:44;;;;;;;6.28;5.68;;;19.70;69.00;;;;;;5012949;28;20298;-65
2023/05/21 11:38:09;;;;;;;5.57;5.07;;;19.70;68.70;;;;;;5013575;28;20199;-66
2023/05/21 11:40:35;;;;;;;7.68;5.72;;;19.70;68.90;;;;;;5005083;28;20201;-65
2023/05/21 11:43:01;;;;;;;6.50;5.90;;;19.70;68.70;;;;;;5004136;28;20199;-65
2023/05/21 11:45:31;;;;;;;7.57;6.53;;;19.70;68.80;;;;;;5004922;28;20184;-65
2023/05/21 11:47:57;;;;;;;6.18;5.57;;;19.70;68.90;;;;;;5002158;28;20254;-65
2023/05/21 11:50:23;;;;;;;8.48;6.57;;;19.70;68.80;;;;;;5017638;28;20193;-66
2023/05/21 11:52:50;;;;;;;6.07;5.57;;;19.70;68.90;;;;;;5017516;28;20240;-66
2023/05/21 11:55:23;;;;;;;6.97;6.28;;;19.70;69.00;;;;;;5009256;28;20177;-65
2023/05/21 11:57:53;;;;;;;6.85;6.15;;;19.70;69.00;;;;;;5009483;28;20192;-66
2023/05/21 12:00:18;;;;;;;7.05;6.38;;;19.60;68.90;;;;;;5014616;28;20294;-65
2023/05/21 12:02:52;;;;;;;7.40;6.25;;;19.70;68.80;;;;;;5020905;28;20284;-66
2023/05/21 12:05:18;;;;;;;8.95;6.10;;;19.70;68.90;;;;;;5004264;28;20578;-65
2023/05/21 12:07:51;;;;;;;6.63;5.85;;;19.70;68.80;;;;;;5003448;28;20191;-66
2023/05/21 12:10:21;;;;;;;6.85;6.10;;;19.70;68.60;;;;;;5005926;28;20192;-66
2023/05/21 12:12:47;;;;;;;7.35;6.15;;;19.70;68.60;;;;;;5003500;28;20282;-66
2023/05/21 12:15:13;;;;;;;7.28;6.13;;;19.70;68.90;;;;;;4992677;28;20200;-65
2023/05/21 12:17:40;;;;;;;6.80;6.10;;;19.70;68.70;;;;;;5000653;28;20192;-65
2023/05/21 12:20:08;;;;;;;6.55;6.00;;;19.70;68.80;;;;;;5028686;28;20266;-65
2023/05/21 12:22:41;;;;;;;6.45;5.85;;;19.70;68.80;;;;;;5003934;28;20223;-65
2023/05/21 12:25:07;;;;;;;6.72;6.13;;;19.70;68.80;;;;;;5012713;28;20200;-66
2023/05/21 12:27:35;;;;;;;7.00;6.30;;;19.70;69.00;;;;;;5004717;28;20267;-65
2023/05/21 12:30:02;;;;;;;7.05;6.10;;;19.70;69.00;;;;;;5020100;28;20288;-65
2023/05/21 12:32:28;;;;;;;8.38;6.15;;;19.70;68.80;;;;;;4997224;28;20279;-65
2023/05/21 12:34:55;;;;;;;8.63;6.35;;;19.70;68.70;;;;;;5024852;28;20195;-65
2023/05/21 12:37:30;;;;;;;6.97;6.28;;;19.70;69.20;;;;;;4997472;28;20211;-65
2023/05/21 12:40:00;;;;;;;6.50;5.90;;;19.70;69.00;;;;;;5001714;28;20282;-65
2023/05/21 12:42:34;;;;;;;8.10;6.38;;;19.70;68.90;;;;;;5000343;28;20196;-65
2023/05/21 12:45:05;;;;;;;6.93;6.28;;;19.70;69.20;;;;;;5000596;28;20611;-65
2023/05/21 12:47:32;;;;;;;6.78;6.07;;;19.70;69.00;;;;;;5006869;28;20225;-65
2023/05/21 12:50:00;;;;;;;7.18;6.07;;;19.70;68.90;;;;;;4995366;28;20271;-65
2023/05/21 12:52:27;;;;;;;7.40;6.70;;;19.70;68.80;;;;;;4995222;28;20192;-65
2023/05/21 12:54:55;;;;;;;6.00;5.50;;;19.70;68.80;;;;;;4991843;28;20204;-66